createdAt,value
2022-10-02T00:00:16.856Z,0.00
2022-10-02T00:01:16.944Z,0.00
2022-10-02T00:02:16.831Z,0.00
2022-10-02T00:03:16.818Z,0.00
2022-10-02T00:04:16.834Z,0.00
2022-10-02T00:06:16.775Z,0.00
2022-10-02T00:07:16.765Z,0.00
2022-10-02T00:08:19.781Z,0.00
2022-10-02T00:09:16.769Z,0.00
2022-10-02T00:10:16.726Z,0.00
2022-10-02T00:11:16.712Z,0.00
2022-10-02T00:12:16.697Z,0.00
2022-10-02T00:13:16.686Z,0.00
2022-10-02T00:14:16.671Z,0.00
2022-10-02T00:15:16.659Z,0.00
2022-10-02T00:17:16.634Z,0.00
2022-10-02T00:18:16.618Z,0.00
2022-10-02T00:19:16.609Z,0.00
2022-10-02T00:20:16.591Z,0.00
2022-10-02T00:21:16.580Z,0.00
2022-10-02T00:22:16.568Z,0.00
2022-10-02T00:23:16.556Z,0.00
2022-10-02T00:24:16.539Z,0.00
2022-10-02T00:25:16.551Z,0.00
2022-10-02T00:26:16.515Z,0.00
2022-10-02T00:28:16.594Z,0.00
2022-10-02T00:29:16.477Z,0.00
2022-10-02T00:30:16.462Z,0.00
2022-10-02T00:31:16.530Z,0.00
2022-10-02T00:32:16.435Z,0.00
2022-10-02T00:33:16.424Z,0.00
2022-10-02T00:34:16.410Z,0.00
2022-10-02T00:35:16.398Z,0.00
2022-10-02T00:36:16.383Z,0.00
2022-10-02T00:37:16.370Z,0.00
2022-10-02T00:39:16.349Z,0.00
2022-10-02T00:40:16.334Z,0.00
2022-10-02T00:41:16.421Z,0.00
2022-10-02T00:42:16.309Z,0.00
2022-10-02T00:43:16.291Z,0.00
2022-10-02T00:44:16.282Z,0.00
2022-10-02T00:45:16.270Z,0.00
2022-10-02T00:46:16.332Z,0.00
2022-10-02T00:47:16.250Z,0.00
2022-10-02T00:48:16.255Z,0.00
2022-10-02T00:50:16.205Z,0.00
2022-10-02T00:51:16.188Z,0.00
2022-10-02T00:52:16.178Z,0.00
2022-10-02T00:53:16.168Z,0.00
2022-10-02T00:54:16.153Z,0.00
2022-10-02T00:55:16.137Z,0.00
2022-10-02T00:56:16.126Z,0.00
2022-10-02T00:57:16.145Z,0.00
2022-10-02T00:58:16.100Z,0.00
2022-10-02T00:59:16.086Z,0.00
2022-10-02T01:01:16.155Z,0.00
2022-10-02T01:02:16.094Z,0.00
2022-10-02T01:03:16.033Z,0.00
2022-10-02T01:04:16.023Z,0.00
2022-10-02T01:05:16.010Z,0.00
2022-10-02T01:06:15.997Z,0.00
2022-10-02T01:07:15.983Z,0.00
2022-10-02T01:08:15.977Z,0.00
2022-10-02T01:09:15.956Z,0.00
2022-10-02T01:10:15.946Z,0.00
2022-10-02T01:12:15.920Z,0.00
2022-10-02T01:13:15.928Z,0.00
2022-10-02T01:14:15.894Z,0.00
2022-10-02T01:15:15.881Z,0.00
2022-10-02T01:16:15.928Z,0.00
2022-10-02T01:17:15.854Z,0.00
2022-10-02T01:18:15.846Z,0.00
2022-10-02T01:19:15.826Z,0.00
2022-10-02T01:20:15.818Z,0.00
2022-10-02T01:21:15.801Z,0.00
2022-10-02T01:23:15.777Z,0.00
2022-10-02T01:24:15.766Z,0.00
2022-10-02T01:25:15.750Z,0.00
2022-10-02T01:26:15.744Z,0.00
2022-10-02T01:27:15.724Z,0.00
2022-10-02T01:28:15.811Z,0.00
2022-10-02T01:29:15.745Z,0.00
2022-10-02T01:30:15.690Z,0.00
2022-10-02T01:31:15.733Z,0.00
2022-10-02T01:32:15.662Z,0.00
2022-10-02T01:34:15.638Z,0.00
2022-10-02T01:35:15.626Z,0.00
2022-10-02T01:36:15.612Z,0.00
2022-10-02T01:37:15.595Z,0.00
2022-10-02T01:38:15.586Z,0.00
2022-10-02T01:39:15.571Z,0.00
2022-10-02T01:40:15.561Z,0.00
2022-10-02T01:41:15.544Z,0.00
2022-10-02T01:42:15.533Z,0.00
2022-10-02T01:43:15.529Z,0.00
2022-10-02T01:45:15.518Z,0.00
2022-10-02T01:46:15.547Z,0.00
2022-10-02T01:47:15.468Z,0.00
2022-10-02T01:48:15.455Z,0.00
2022-10-02T01:49:15.442Z,0.00
2022-10-02T01:50:15.435Z,0.00
2022-10-02T01:51:15.418Z,0.00
2022-10-02T01:52:15.404Z,0.00
2022-10-02T01:53:15.390Z,0.00
2022-10-02T01:54:15.379Z,0.00
2022-10-02T01:56:15.352Z,0.00
2022-10-02T01:57:15.338Z,0.00
2022-10-02T01:58:15.326Z,0.00
2022-10-02T01:59:15.311Z,0.00
2022-10-02T02:00:15.300Z,0.00
2022-10-02T02:01:15.512Z,0.00
2022-10-02T02:02:15.359Z,0.00
2022-10-02T02:03:15.259Z,0.00
2022-10-02T02:04:15.249Z,0.00
2022-10-02T02:05:15.239Z,0.00
2022-10-02T02:07:15.206Z,0.00
2022-10-02T02:08:15.195Z,0.00
2022-10-02T02:09:15.178Z,0.00
2022-10-02T02:10:15.170Z,0.00
2022-10-02T02:11:15.153Z,0.00
2022-10-02T02:12:15.142Z,0.00
2022-10-02T02:13:15.124Z,0.00
2022-10-02T02:14:15.113Z,0.00
2022-10-02T02:15:15.101Z,0.00
2022-10-02T02:16:15.164Z,0.00
2022-10-02T02:18:15.060Z,0.00
2022-10-02T02:19:15.049Z,0.00
2022-10-02T02:20:15.033Z,0.00
2022-10-02T02:21:15.018Z,0.00
2022-10-02T02:22:15.006Z,0.00
2022-10-02T02:23:14.990Z,0.00
2022-10-02T02:24:14.980Z,0.00
2022-10-02T02:25:14.966Z,0.00
2022-10-02T02:26:14.953Z,0.00
2022-10-02T02:27:14.938Z,0.00
2022-10-02T02:29:14.912Z,0.00
2022-10-02T02:30:14.900Z,0.00
2022-10-02T02:31:14.948Z,0.00
2022-10-02T02:32:14.877Z,0.00
2022-10-02T02:33:14.881Z,0.00
2022-10-02T02:34:14.847Z,0.00
2022-10-02T02:35:14.833Z,0.00
2022-10-02T02:36:14.823Z,0.00
2022-10-02T02:37:14.807Z,0.00
2022-10-02T02:38:14.798Z,0.00
2022-10-02T02:40:14.774Z,0.00
2022-10-02T02:41:14.755Z,0.00
2022-10-02T02:42:17.816Z,0.00
2022-10-02T02:43:14.728Z,0.00
2022-10-02T02:44:14.717Z,0.00
2022-10-02T02:45:14.706Z,0.00
2022-10-02T02:46:14.773Z,0.00
2022-10-02T02:47:14.676Z,0.00
2022-10-02T02:48:14.663Z,0.00
2022-10-02T02:49:14.677Z,0.00
2022-10-02T02:51:14.623Z,0.00
2022-10-02T02:52:14.611Z,0.00
2022-10-02T02:53:14.595Z,0.00
2022-10-02T02:54:14.589Z,0.00
2022-10-02T02:55:14.571Z,0.00
2022-10-02T02:56:14.558Z,0.00
2022-10-02T02:57:14.543Z,0.00
2022-10-02T02:58:14.532Z,0.00
2022-10-02T02:59:14.516Z,0.00
2022-10-02T03:00:14.506Z,0.00
2022-10-02T03:02:14.542Z,0.00
2022-10-02T03:03:14.465Z,0.00
2022-10-02T03:04:14.454Z,0.00
2022-10-02T03:05:14.462Z,0.00
2022-10-02T03:06:14.431Z,0.00
2022-10-02T03:07:14.412Z,0.00
2022-10-02T03:08:14.401Z,0.00
2022-10-02T03:09:14.386Z,0.00
2022-10-02T03:10:14.374Z,0.00
2022-10-02T03:11:14.361Z,0.00
2022-10-02T03:13:14.333Z,0.00
2022-10-02T03:14:14.323Z,0.00
2022-10-02T03:15:14.307Z,0.00
2022-10-02T03:16:14.405Z,0.00
2022-10-02T03:17:14.282Z,0.00
2022-10-02T03:18:14.270Z,0.00
2022-10-02T03:19:14.255Z,0.00
2022-10-02T03:20:14.244Z,0.00
2022-10-02T03:21:14.251Z,0.00
2022-10-02T03:22:14.218Z,0.00
2022-10-02T03:24:14.191Z,0.00
2022-10-02T03:25:14.178Z,0.00
2022-10-02T03:26:14.165Z,0.00
2022-10-02T03:27:14.150Z,0.00
2022-10-02T03:28:14.172Z,0.00
2022-10-02T03:29:14.126Z,0.00
2022-10-02T03:30:14.111Z,0.00
2022-10-02T03:31:14.122Z,0.00
2022-10-02T03:32:14.084Z,0.00
2022-10-02T03:33:14.073Z,0.00
2022-10-02T03:35:14.043Z,0.00
2022-10-02T03:36:14.032Z,0.00
2022-10-02T03:37:14.039Z,0.00
2022-10-02T03:38:14.004Z,0.00
2022-10-02T03:39:24.772Z,0.00
2022-10-02T03:40:13.982Z,0.00
2022-10-02T03:41:13.963Z,0.00
2022-10-02T03:42:13.952Z,0.00
2022-10-02T03:43:13.937Z,0.00
2022-10-02T03:44:13.926Z,0.00
2022-10-02T03:46:13.959Z,0.00
2022-10-02T03:47:13.884Z,0.00
2022-10-02T03:48:13.871Z,0.00
2022-10-02T03:49:13.857Z,0.00
2022-10-02T03:50:13.845Z,0.00
2022-10-02T03:51:13.834Z,0.00
2022-10-02T03:52:13.817Z,0.00
2022-10-02T03:53:13.827Z,0.00
2022-10-02T03:54:13.793Z,0.00
2022-10-02T03:55:13.777Z,0.00
2022-10-02T03:57:13.751Z,0.00
2022-10-02T03:58:13.739Z,0.00
2022-10-02T03:59:13.724Z,0.00
2022-10-02T04:00:13.712Z,0.00
2022-10-02T04:01:13.733Z,0.00
2022-10-02T04:02:13.684Z,0.00
2022-10-02T04:03:13.725Z,0.00
2022-10-02T04:04:13.661Z,0.00
2022-10-02T04:05:13.645Z,0.00
2022-10-02T04:06:13.633Z,0.00
2022-10-02T04:08:13.607Z,0.00
2022-10-02T04:09:13.615Z,0.00
2022-10-02T04:10:13.581Z,0.00
2022-10-02T04:11:13.567Z,0.00
2022-10-02T04:12:13.561Z,0.00
2022-10-02T04:13:13.542Z,0.00
2022-10-02T04:14:13.529Z,0.00
2022-10-02T04:15:13.515Z,0.00
2022-10-02T04:16:13.554Z,0.00
2022-10-02T04:17:13.491Z,0.00
2022-10-02T04:19:13.465Z,0.00
2022-10-02T04:20:13.450Z,0.00
2022-10-02T04:21:13.435Z,0.00
2022-10-02T04:22:13.426Z,0.00
2022-10-02T04:23:13.410Z,0.00
2022-10-02T04:24:13.401Z,0.00
2022-10-02T04:25:13.413Z,0.00
2022-10-02T04:26:13.374Z,0.00
2022-10-02T04:27:13.358Z,0.00
2022-10-02T04:28:13.400Z,0.00
2022-10-02T04:30:13.321Z,0.00
2022-10-02T04:31:13.410Z,0.00
2022-10-02T04:32:13.293Z,0.00
2022-10-02T04:33:13.281Z,0.00
2022-10-02T04:34:13.268Z,0.00
2022-10-02T04:35:13.257Z,0.00
2022-10-02T04:36:13.243Z,0.00
2022-10-02T04:37:13.229Z,0.00
2022-10-02T04:38:13.219Z,0.00
2022-10-02T04:39:13.202Z,0.00
2022-10-02T04:41:13.198Z,0.00
2022-10-02T04:42:13.163Z,0.00
2022-10-02T04:43:13.149Z,0.00
2022-10-02T04:44:13.136Z,0.00
2022-10-02T04:45:13.126Z,0.00
2022-10-02T04:46:13.220Z,0.00
2022-10-02T04:47:13.094Z,0.00
2022-10-02T04:48:13.082Z,0.00
2022-10-02T04:49:13.067Z,0.00
2022-10-02T04:50:13.056Z,0.00
2022-10-02T04:52:13.029Z,0.00
2022-10-02T04:53:13.017Z,0.00
2022-10-02T04:54:13.001Z,0.00
2022-10-02T04:55:12.989Z,0.00
2022-10-02T04:56:12.979Z,0.00
2022-10-02T04:57:12.980Z,0.00
2022-10-02T04:58:12.947Z,0.00
2022-10-02T04:59:12.935Z,0.00
2022-10-02T05:00:12.930Z,0.00
2022-10-02T05:01:13.045Z,0.00
2022-10-02T05:03:12.881Z,4.00
2022-10-02T05:04:12.864Z,4.00
2022-10-02T05:05:12.854Z,4.00
2022-10-02T05:06:12.840Z,0.00
2022-10-02T05:07:12.829Z,4.00
2022-10-02T05:08:12.812Z,4.00
2022-10-02T05:09:12.800Z,4.00
2022-10-02T05:10:12.784Z,4.00
2022-10-02T05:11:12.774Z,4.00
2022-10-02T05:12:12.759Z,8.00
2022-10-02T05:14:12.732Z,8.00
2022-10-02T05:15:12.718Z,12.00
2022-10-02T05:16:12.786Z,12.00
2022-10-02T05:17:12.691Z,16.00
2022-10-02T05:18:17.716Z,20.00
2022-10-02T05:19:12.666Z,20.00
2022-10-02T05:20:12.649Z,24.00
2022-10-02T05:21:12.638Z,24.00
2022-10-02T05:22:12.624Z,24.00
2022-10-02T05:23:12.611Z,28.00
2022-10-02T05:25:12.590Z,28.00
2022-10-02T05:26:14.516Z,32.00
2022-10-02T05:27:12.557Z,32.00
2022-10-02T05:28:12.645Z,36.00
2022-10-02T05:29:12.554Z,40.00
2022-10-02T05:30:12.513Z,44.00
2022-10-02T05:31:12.558Z,48.00
2022-10-02T05:32:12.489Z,56.00
2022-10-02T05:33:12.479Z,60.00
2022-10-02T05:34:12.461Z,64.00
2022-10-02T05:36:12.435Z,72.00
2022-10-02T05:37:12.422Z,76.00
2022-10-02T05:38:12.408Z,76.00
2022-10-02T05:39:12.396Z,80.00
2022-10-02T05:40:12.380Z,84.00
2022-10-02T05:41:12.372Z,88.00
2022-10-02T05:42:12.354Z,100.00
2022-10-02T05:43:12.341Z,108.00
2022-10-02T05:44:12.326Z,120.00
2022-10-02T05:45:12.337Z,132.00
2022-10-02T05:47:12.289Z,164.00
2022-10-02T05:48:12.280Z,184.00
2022-10-02T05:49:12.261Z,204.00
2022-10-02T05:50:12.246Z,224.00
2022-10-02T05:51:12.233Z,244.00
2022-10-02T05:52:12.221Z,260.00
2022-10-02T05:53:12.206Z,268.00
2022-10-02T05:54:12.192Z,272.00
2022-10-02T05:55:12.180Z,280.00
2022-10-02T05:56:12.168Z,284.00
2022-10-02T05:58:12.138Z,284.00
2022-10-02T05:59:12.125Z,288.00
2022-10-02T06:00:12.112Z,300.00
2022-10-02T06:01:12.179Z,312.00
2022-10-02T06:02:12.109Z,320.00
2022-10-02T06:03:12.073Z,336.00
2022-10-02T06:04:12.058Z,348.00
2022-10-02T06:05:12.046Z,360.00
2022-10-02T06:06:12.032Z,368.00
2022-10-02T06:07:12.021Z,380.00
2022-10-02T06:09:15.423Z,428.00
2022-10-02T06:10:11.986Z,440.00
2022-10-02T06:11:11.968Z,456.00
2022-10-02T06:12:11.955Z,492.00
2022-10-02T06:13:11.941Z,548.00
2022-10-02T06:14:11.926Z,600.00
2022-10-02T06:15:11.914Z,648.00
2022-10-02T06:16:12.014Z,708.00
2022-10-02T06:17:11.913Z,776.00
2022-10-02T06:18:11.873Z,836.00
2022-10-02T06:20:11.847Z,860.00
2022-10-02T06:21:11.835Z,844.00
2022-10-02T06:22:11.818Z,820.00
2022-10-02T06:23:11.814Z,788.00
2022-10-02T06:24:11.792Z,720.00
2022-10-02T06:25:11.783Z,652.00
2022-10-02T06:26:11.766Z,640.00
2022-10-02T06:27:11.754Z,632.00
2022-10-02T06:28:11.838Z,636.00
2022-10-02T06:29:14.844Z,676.00
2022-10-02T06:31:11.760Z,836.00
2022-10-02T06:32:11.687Z,880.00
2022-10-02T06:33:11.701Z,896.00
2022-10-02T06:34:11.662Z,876.00
2022-10-02T06:35:11.651Z,840.00
2022-10-02T06:36:11.636Z,828.00
2022-10-02T06:37:11.624Z,824.00
2022-10-02T06:38:11.609Z,908.00
2022-10-02T06:39:11.598Z,1020.00
2022-10-02T06:40:11.581Z,1180.00
2022-10-02T06:42:11.556Z,1204.00
2022-10-02T06:43:11.544Z,1096.00
2022-10-02T06:44:11.529Z,932.00
2022-10-02T06:45:11.519Z,928.00
2022-10-02T06:46:11.607Z,1056.00
2022-10-02T06:47:11.492Z,1196.00
2022-10-02T06:48:11.486Z,1220.00
2022-10-02T06:49:11.489Z,1244.00
2022-10-02T06:50:11.452Z,1296.00
2022-10-02T06:51:11.440Z,1284.00
2022-10-02T06:53:11.414Z,1480.00
2022-10-02T06:54:11.399Z,1640.00
2022-10-02T06:55:11.388Z,1760.00
2022-10-02T06:56:11.373Z,1804.00
2022-10-02T06:57:11.362Z,1796.00
2022-10-02T06:58:11.348Z,1756.00
2022-10-02T06:59:11.334Z,1756.00
2022-10-02T07:00:11.318Z,1744.00
2022-10-02T07:01:11.349Z,1608.00
2022-10-02T07:02:11.345Z,1608.00
2022-10-02T07:04:11.268Z,1800.00
2022-10-02T07:05:11.280Z,2012.00
2022-10-02T07:06:11.241Z,2336.00
2022-10-02T07:07:11.228Z,2580.00
2022-10-02T07:08:11.219Z,2732.00
2022-10-02T07:09:11.202Z,2780.00
2022-10-02T07:10:11.186Z,2840.00
2022-10-02T07:11:11.176Z,2944.00
2022-10-02T07:12:11.161Z,3040.00
2022-10-02T07:13:11.149Z,3120.00
2022-10-02T07:15:11.123Z,3380.00
2022-10-02T07:16:11.141Z,3528.00
2022-10-02T07:17:11.094Z,3600.00
2022-10-02T07:18:11.078Z,3600.00
2022-10-02T07:19:11.068Z,3668.00
2022-10-02T07:20:11.055Z,3764.00
2022-10-02T07:21:11.075Z,3876.00
2022-10-02T07:22:32.330Z,3996.00
2022-10-02T07:23:13.013Z,4132.00
2022-10-02T07:24:10.998Z,4308.00
2022-10-02T07:26:10.979Z,4432.00
2022-10-02T07:27:10.961Z,4340.00
2022-10-02T07:28:11.028Z,4232.00
2022-10-02T07:29:10.933Z,4176.00
2022-10-02T07:30:10.918Z,4184.00
2022-10-02T07:31:10.940Z,4268.00
2022-10-02T07:32:10.895Z,4204.00
2022-10-02T07:33:10.880Z,4168.00
2022-10-02T07:34:10.863Z,4224.00
2022-10-02T07:35:10.854Z,4320.00
2022-10-02T07:37:10.847Z,4448.00
2022-10-02T07:38:10.813Z,4424.00
2022-10-02T07:39:10.801Z,4380.00
2022-10-02T07:40:10.783Z,4292.00
2022-10-02T07:41:10.772Z,4172.00
2022-10-02T07:42:10.764Z,4024.00
2022-10-02T07:43:10.745Z,3812.00
2022-10-02T07:44:10.729Z,3624.00
2022-10-02T07:45:10.718Z,3468.00
2022-10-02T07:46:10.728Z,3360.00
2022-10-02T07:48:10.677Z,3296.00
2022-10-02T07:49:10.664Z,3260.00
2022-10-02T07:50:10.649Z,3176.00
2022-10-02T07:51:10.637Z,3052.00
2022-10-02T07:52:10.621Z,2904.00
2022-10-02T07:53:10.637Z,2828.00
2022-10-02T07:54:10.595Z,2804.00
2022-10-02T07:55:10.582Z,2764.00
2022-10-02T07:56:10.571Z,2728.00
2022-10-02T07:57:10.557Z,2704.00
2022-10-02T07:59:10.528Z,2688.00
2022-10-02T08:00:10.514Z,2716.00
2022-10-02T08:01:10.503Z,2760.00
2022-10-02T08:02:10.555Z,2800.00
2022-10-02T08:03:10.561Z,2840.00
2022-10-02T08:04:10.460Z,2884.00
2022-10-02T08:05:10.449Z,2904.00
2022-10-02T08:06:10.434Z,2988.00
2022-10-02T08:07:10.422Z,3096.00
2022-10-02T08:08:10.407Z,3288.00
2022-10-02T08:10:10.382Z,3692.00
2022-10-02T08:11:10.367Z,3768.00
2022-10-02T08:12:10.353Z,3752.00
2022-10-02T08:13:10.342Z,3716.00
2022-10-02T08:14:10.327Z,3708.00
2022-10-02T08:15:10.315Z,3800.00
2022-10-02T08:16:10.345Z,3984.00
2022-10-02T08:17:10.290Z,4048.00
2022-10-02T08:18:33.232Z,3948.00
2022-10-02T08:20:10.246Z,3704.00
2022-10-02T08:21:10.236Z,3636.00
2022-10-02T08:22:10.220Z,3608.00
2022-10-02T08:23:10.210Z,3644.00
2022-10-02T08:24:10.194Z,3704.00
2022-10-02T08:25:10.203Z,3748.00
2022-10-02T08:26:10.167Z,3740.00
2022-10-02T08:27:10.156Z,3708.00
2022-10-02T08:28:10.169Z,3660.00
2022-10-02T08:29:10.129Z,3596.00
2022-10-02T08:31:10.157Z,3536.00
2022-10-02T08:32:10.090Z,3408.00
2022-10-02T08:33:10.077Z,3200.00
2022-10-02T08:34:10.062Z,3000.00
2022-10-02T08:35:10.050Z,2888.00
2022-10-02T08:36:10.035Z,2872.00
2022-10-02T08:37:10.026Z,2988.00
2022-10-02T08:38:10.020Z,3128.00
2022-10-02T08:39:09.998Z,3168.00
2022-10-02T08:40:09.986Z,3180.00
2022-10-02T08:42:09.955Z,3292.00
2022-10-02T08:43:09.946Z,3336.00
2022-10-02T08:44:09.931Z,3360.00
2022-10-02T08:45:09.918Z,3456.00
2022-10-02T08:46:09.980Z,3688.00
2022-10-02T08:47:09.891Z,4048.00
2022-10-02T08:48:09.877Z,4512.00
2022-10-02T08:49:09.866Z,5064.00
2022-10-02T08:50:09.851Z,5560.00
2022-10-02T08:51:09.841Z,5924.00
2022-10-02T08:53:09.812Z,6324.00
2022-10-02T08:54:09.798Z,6348.00
2022-10-02T08:55:09.790Z,6260.00
2022-10-02T08:56:09.773Z,6140.00
2022-10-02T08:57:09.847Z,6072.00
2022-10-02T08:58:09.746Z,6056.00
2022-10-02T08:59:09.733Z,6080.00
2022-10-02T09:00:09.719Z,6140.00
2022-10-02T09:01:09.726Z,6220.00
2022-10-02T09:02:09.720Z,6332.00
2022-10-02T09:04:09.669Z,6488.00
2022-10-02T09:05:09.656Z,6460.00
2022-10-02T09:06:09.641Z,6284.00
2022-10-02T09:07:09.629Z,6012.00
2022-10-02T09:08:09.616Z,5844.00
2022-10-02T09:09:09.601Z,5852.00
2022-10-02T09:10:09.589Z,5952.00
2022-10-02T09:11:09.575Z,6060.00
2022-10-02T09:12:09.564Z,6164.00
2022-10-02T09:13:09.571Z,6416.00
2022-10-02T09:15:09.521Z,6856.00
2022-10-02T09:16:09.605Z,6896.00
2022-10-02T09:17:09.496Z,6896.00
2022-10-02T09:18:09.482Z,6896.00
2022-10-02T09:19:09.518Z,6844.00
2022-10-02T09:20:09.457Z,6764.00
2022-10-02T09:21:11.759Z,6672.00
2022-10-02T09:22:09.430Z,6668.00
2022-10-02T09:23:09.421Z,6768.00
2022-10-02T09:24:09.404Z,6904.00
2022-10-02T09:26:09.378Z,7048.00
2022-10-02T09:27:09.362Z,7060.00
2022-10-02T09:28:09.403Z,7048.00
2022-10-02T09:29:09.359Z,7012.00
2022-10-02T09:30:09.324Z,6968.00
2022-10-02T09:31:09.533Z,6932.00
2022-10-02T09:32:09.299Z,6952.00
2022-10-02T09:33:11.661Z,7048.00
2022-10-02T09:34:09.274Z,7216.00
2022-10-02T09:35:09.256Z,7476.00
2022-10-02T09:37:09.231Z,8240.00
2022-10-02T09:38:09.219Z,8624.00
2022-10-02T09:39:09.204Z,8980.00
2022-10-02T09:40:09.193Z,9268.00
2022-10-02T09:41:09.176Z,9528.00
2022-10-02T09:42:09.166Z,9836.00
2022-10-02T09:43:09.151Z,10272.00
2022-10-02T09:44:09.139Z,10708.00
2022-10-02T09:45:09.146Z,11092.00
2022-10-02T09:46:09.158Z,11528.00
2022-10-02T09:48:09.086Z,11928.00
2022-10-02T09:49:09.072Z,11840.00
2022-10-02T09:50:09.060Z,11876.00
2022-10-02T09:51:09.046Z,11784.00
2022-10-02T09:52:09.039Z,11392.00
2022-10-02T09:53:09.024Z,11520.00
2022-10-02T09:54:09.013Z,11928.00
2022-10-02T09:56:08.984Z,12240.00
2022-10-02T09:57:08.970Z,12252.00
2022-10-02T09:59:08.944Z,9852.00
2022-10-02T10:00:08.940Z,9380.00
2022-10-02T10:01:09.020Z,9280.00
2022-10-02T10:02:08.973Z,9080.00
2022-10-02T10:03:08.897Z,8640.00
2022-10-02T10:04:08.885Z,8040.00
2022-10-02T10:05:08.939Z,7584.00
2022-10-02T10:06:08.859Z,7344.00
2022-10-02T10:07:08.843Z,7288.00
2022-10-02T10:08:08.835Z,7312.00
2022-10-02T10:10:08.808Z,7388.00
2022-10-02T10:11:08.793Z,7336.00
2022-10-02T10:12:08.780Z,7176.00
2022-10-02T10:13:08.767Z,6828.00
2022-10-02T10:14:08.754Z,6416.00
2022-10-02T10:15:09.366Z,6120.00
2022-10-02T10:16:08.760Z,5940.00
2022-10-02T10:17:08.737Z,5852.00
2022-10-02T10:18:08.702Z,5836.00
2022-10-02T10:19:08.709Z,5880.00
2022-10-02T10:21:08.659Z,6440.00
2022-10-02T10:22:08.649Z,6896.00
2022-10-02T10:23:08.634Z,7364.00
2022-10-02T10:24:08.622Z,7864.00
2022-10-02T10:25:08.607Z,8244.00
2022-10-02T10:26:08.594Z,8244.00
2022-10-02T10:27:08.581Z,8020.00
2022-10-02T10:28:08.585Z,7648.00
2022-10-02T10:29:08.553Z,7224.00
2022-10-02T10:30:08.541Z,6932.00
2022-10-02T10:32:08.515Z,7024.00
2022-10-02T10:33:08.527Z,7496.00
2022-10-02T10:34:08.489Z,8172.00
2022-10-02T10:35:08.474Z,8888.00
2022-10-02T10:36:08.464Z,9336.00
2022-10-02T10:37:08.449Z,9488.00
2022-10-02T10:38:08.436Z,9372.00
2022-10-02T10:39:08.422Z,9032.00
2022-10-02T10:40:08.410Z,8752.00
2022-10-02T10:41:08.399Z,8664.00
2022-10-02T10:43:08.802Z,8624.00
2022-10-02T10:44:08.355Z,8288.00
2022-10-02T10:45:08.340Z,7648.00
2022-10-02T10:46:08.411Z,7020.00
2022-10-02T10:47:08.315Z,6544.00
2022-10-02T10:48:08.304Z,6008.00
2022-10-02T10:49:08.315Z,5840.00
2022-10-02T10:50:08.278Z,5896.00
2022-10-02T10:51:08.263Z,5960.00
2022-10-02T10:52:08.250Z,6056.00
2022-10-02T10:54:08.227Z,6504.00
2022-10-02T10:55:08.210Z,7000.00
2022-10-02T10:56:08.198Z,7396.00
2022-10-02T10:57:08.182Z,7360.00
2022-10-02T10:58:08.172Z,7164.00
2022-10-02T10:59:08.156Z,7688.00
2022-10-02T11:00:08.145Z,8324.00
2022-10-02T11:01:08.216Z,8780.00
2022-10-02T11:02:08.168Z,9060.00
2022-10-02T11:03:08.105Z,9076.00
2022-10-02T11:05:08.100Z,10124.00
2022-10-02T11:06:08.067Z,10704.00
2022-10-02T11:07:08.057Z,11036.00
2022-10-02T11:08:08.040Z,10712.00
2022-10-02T11:09:08.024Z,10352.00
2022-10-02T11:10:08.012Z,9736.00
2022-10-02T11:11:07.999Z,8868.00
2022-10-02T11:12:09.774Z,8104.00
2022-10-02T11:13:08.023Z,7208.00
2022-10-02T11:14:07.962Z,6616.00
2022-10-02T11:16:07.975Z,6336.00
2022-10-02T11:17:07.937Z,6256.00
2022-10-02T11:18:07.908Z,5920.00
2022-10-02T11:19:07.897Z,5516.00
2022-10-02T11:20:07.885Z,5396.00
2022-10-02T11:21:07.893Z,5816.00
2022-10-02T11:22:07.870Z,6052.00
2022-10-02T11:23:07.844Z,5756.00
2022-10-02T11:24:07.830Z,5688.00
2022-10-02T11:25:12.547Z,5688.00
2022-10-02T11:27:07.789Z,5676.00
2022-10-02T11:28:07.849Z,5548.00
2022-10-02T11:29:07.763Z,5612.00
2022-10-02T11:30:07.751Z,5540.00
2022-10-02T11:31:07.736Z,5192.00
2022-10-02T11:32:07.798Z,4628.00
2022-10-02T11:33:07.709Z,4276.00
2022-10-02T11:34:07.700Z,3752.00
2022-10-02T11:35:07.684Z,3260.00
2022-10-02T11:36:07.675Z,2912.00
2022-10-02T11:38:07.648Z,2572.00
2022-10-02T11:39:07.633Z,2604.00
2022-10-02T11:40:07.622Z,2640.00
2022-10-02T11:41:07.611Z,2696.00
2022-10-02T11:42:07.594Z,2860.00
2022-10-02T11:43:07.581Z,3104.00
2022-10-02T11:44:07.567Z,3432.00
2022-10-02T11:45:07.552Z,3800.00
2022-10-02T11:46:07.619Z,4224.00
2022-10-02T11:47:07.534Z,4596.00
2022-10-02T11:49:07.503Z,4548.00
2022-10-02T11:50:07.488Z,4520.00
2022-10-02T11:51:07.474Z,4108.00
2022-10-02T11:52:07.462Z,3892.00
2022-10-02T11:53:07.469Z,4536.00
2022-10-02T11:54:07.438Z,4996.00
2022-10-02T11:55:07.420Z,4700.00
2022-10-02T11:56:07.410Z,4588.00
2022-10-02T11:57:07.397Z,4636.00
2022-10-02T11:58:07.382Z,4728.00
2022-10-02T12:00:07.355Z,4800.00
2022-10-02T12:01:07.342Z,5180.00
2022-10-02T12:02:07.403Z,5792.00
2022-10-02T12:03:07.413Z,6096.00
2022-10-02T12:04:07.303Z,6080.00
2022-10-02T12:05:07.288Z,5964.00
2022-10-02T12:06:07.276Z,5652.00
2022-10-02T12:07:07.260Z,5464.00
2022-10-02T12:08:07.251Z,5332.00
2022-10-02T12:09:07.259Z,5208.00
2022-10-02T12:11:07.215Z,5344.00
2022-10-02T12:12:07.198Z,5492.00
2022-10-02T12:13:07.192Z,5672.00
2022-10-02T12:14:07.171Z,5820.00
2022-10-02T12:15:07.168Z,5812.00
2022-10-02T12:16:07.175Z,5872.00
2022-10-02T12:17:07.130Z,6128.00
2022-10-02T12:18:07.117Z,6504.00
2022-10-02T12:19:07.102Z,6916.00
2022-10-02T12:20:07.088Z,7324.00
2022-10-02T12:22:07.063Z,7992.00
2022-10-02T12:23:07.048Z,8152.00
2022-10-02T12:24:07.039Z,8136.00
2022-10-02T12:25:07.044Z,7916.00
2022-10-02T12:26:07.015Z,7564.00
2022-10-02T12:27:06.996Z,7212.00
2022-10-02T12:28:07.049Z,6964.00
2022-10-02T12:29:06.973Z,6816.00
2022-10-02T12:30:06.958Z,6732.00
2022-10-02T12:31:06.944Z,6788.00
2022-10-02T12:33:06.916Z,7404.00
2022-10-02T12:34:06.904Z,7932.00
2022-10-02T12:35:06.892Z,8548.00
2022-10-02T12:36:06.878Z,9160.00
2022-10-02T12:37:06.864Z,9604.00
2022-10-02T12:38:06.850Z,9872.00
2022-10-02T12:39:06.837Z,9992.00
2022-10-02T12:40:06.825Z,10088.00
2022-10-02T12:41:06.834Z,9600.00
2022-10-02T12:42:06.800Z,9436.00
2022-10-02T12:44:06.775Z,9776.00
2022-10-02T12:45:11.427Z,9868.00
2022-10-02T12:46:06.788Z,10092.00
2022-10-02T12:47:06.736Z,10220.00
2022-10-02T12:48:06.726Z,10272.00
2022-10-02T12:49:06.712Z,10504.00
2022-10-02T12:50:06.706Z,11524.00
2022-10-02T12:51:06.686Z,11868.00
2022-10-02T12:52:06.673Z,11780.00
2022-10-02T12:53:06.660Z,11484.00
2022-10-02T12:55:06.633Z,10240.00
2022-10-02T12:56:06.620Z,9564.00
2022-10-02T12:57:06.628Z,8960.00
2022-10-02T12:58:06.593Z,8340.00
2022-10-02T12:59:06.577Z,7796.00
2022-10-02T13:00:06.566Z,7160.00
2022-10-02T13:01:06.605Z,6620.00
2022-10-02T13:02:06.633Z,6292.00
2022-10-02T13:03:06.605Z,5952.00
2022-10-02T13:04:06.515Z,5872.00
2022-10-02T13:06:06.489Z,5424.00
2022-10-02T13:07:06.481Z,4928.00
2022-10-02T13:08:06.463Z,4612.00
2022-10-02T13:09:06.451Z,4344.00
2022-10-02T13:10:06.437Z,4032.00
2022-10-02T13:11:06.432Z,3548.00
2022-10-02T13:12:06.414Z,3024.00
2022-10-02T13:13:06.421Z,2644.00
2022-10-02T13:14:06.389Z,2540.00
2022-10-02T13:15:06.374Z,2428.00
2022-10-02T13:17:09.937Z,1952.00
2022-10-02T13:18:06.340Z,1988.00
2022-10-02T13:19:06.323Z,2080.00
2022-10-02T13:20:06.411Z,2304.00
2022-10-02T13:21:06.297Z,2588.00
2022-10-02T13:22:06.285Z,2784.00
2022-10-02T13:23:06.270Z,2976.00
2022-10-02T13:24:06.259Z,3184.00
2022-10-02T13:25:06.244Z,3476.00
2022-10-02T13:26:06.231Z,4008.00
2022-10-02T13:28:06.246Z,5088.00
2022-10-02T13:29:06.215Z,5300.00
2022-10-02T13:30:06.237Z,5592.00
2022-10-02T13:31:06.165Z,6140.00
2022-10-02T13:32:06.201Z,6688.00
2022-10-02T13:33:06.152Z,6828.00
2022-10-02T13:34:06.124Z,6832.00
2022-10-02T13:35:06.112Z,7936.00
2022-10-02T13:36:06.099Z,10292.00
2022-10-02T13:37:06.086Z,10732.00
2022-10-02T13:39:06.060Z,8040.00
2022-10-02T13:40:06.087Z,7264.00
2022-10-02T13:41:06.034Z,7104.00
2022-10-02T13:42:06.018Z,7156.00
2022-10-02T13:43:06.009Z,7580.00
2022-10-02T13:44:05.994Z,7988.00
2022-10-02T13:45:06.006Z,8104.00
2022-10-02T13:46:06.050Z,7844.00
2022-10-02T13:47:05.958Z,8088.00
2022-10-02T13:48:05.947Z,8732.00
2022-10-02T13:50:06.086Z,9136.00
2022-10-02T13:51:05.906Z,9228.00